createdAt,value
2019-03-04T00:00:50.771Z,10.82
2019-03-04T00:03:18.750Z,10.97
2019-03-04T00:05:46.750Z,10.86
2019-03-04T00:08:19.452Z,10.86
2019-03-04T00:10:47.505Z,10.86
2019-03-04T00:13:15.275Z,10.76
2019-03-04T00:15:43.302Z,10.76
2019-03-04T00:18:11.286Z,10.80
2019-03-04T00:20:39.473Z,10.78
2019-03-04T00:23:07.247Z,10.72
2019-03-04T00:25:35.200Z,10.74
2019-03-04T00:28:03.182Z,10.82
2019-03-04T00:30:31.216Z,10.77
2019-03-04T00:32:58.954Z,10.74
2019-03-04T00:35:27.079Z,10.74
2019-03-04T00:37:54.940Z,10.72
2019-03-04T00:40:22.884Z,10.80
2019-03-04T00:42:51.734Z,10.85
2019-03-04T00:45:19.700Z,10.86
2019-03-04T00:47:47.553Z,10.80
2019-03-04T00:50:16.601Z,10.78
2019-03-04T00:52:44.450Z,10.91
2019-03-04T00:55:13.276Z,10.84
2019-03-04T00:57:41.156Z,10.81
2019-03-04T01:00:20.322Z,10.90
2019-03-04T01:02:48.244Z,10.84
2019-03-04T01:05:16.755Z,10.89
2019-03-04T01:07:44.729Z,10.89
2019-03-04T01:10:23.422Z,10.88
2019-03-04T01:12:52.121Z,10.92
2019-03-04T01:15:22.562Z,10.82
2019-03-04T01:17:50.545Z,10.79
2019-03-04T01:20:18.659Z,10.82
2019-03-04T01:22:46.751Z,10.85
2019-03-04T01:25:16.283Z,10.76
2019-03-04T01:27:44.145Z,10.80
2019-03-04T01:30:17.150Z,10.77
2019-03-04T01:32:45.098Z,10.75
2019-03-04T01:35:13.130Z,10.77
2019-03-04T01:37:41.117Z,10.68
2019-03-04T01:40:11.845Z,10.69
2019-03-04T01:42:40.495Z,10.68
2019-03-04T01:45:09.308Z,10.72
2019-03-04T01:47:37.137Z,10.70
2019-03-04T01:50:05.679Z,10.81
2019-03-04T01:52:33.617Z,10.72
2019-03-04T01:55:01.523Z,10.73
2019-03-04T01:57:29.290Z,10.81
2019-03-04T01:59:57.580Z,10.81
2019-03-04T02:02:25.400Z,10.81
2019-03-04T02:04:53.472Z,10.92
2019-03-04T02:07:21.276Z,10.91
2019-03-04T02:09:49.242Z,10.98
2019-03-04T02:12:19.858Z,11.02
2019-03-04T02:14:47.736Z,11.03
2019-03-04T02:17:15.569Z,11.12
2019-03-04T02:19:43.687Z,11.05
2019-03-04T02:22:11.741Z,11.03
2019-03-04T02:24:39.510Z,11.04
2019-03-04T02:27:07.526Z,11.03
2019-03-04T02:29:35.377Z,11.08
2019-03-04T02:32:03.434Z,11.15
2019-03-04T02:34:31.320Z,11.19
2019-03-04T02:36:59.173Z,11.17
2019-03-04T02:39:27.036Z,11.20
2019-03-04T02:41:54.885Z,11.20
2019-03-04T02:44:22.677Z,11.20
2019-03-04T02:46:50.511Z,11.18
2019-03-04T02:49:18.268Z,11.13
2019-03-04T02:51:46.205Z,11.13
2019-03-04T02:54:14.064Z,11.06
2019-03-04T02:56:41.907Z,11.06
2019-03-04T02:59:09.991Z,10.95
2019-03-04T03:01:37.942Z,11.03
2019-03-04T03:04:05.913Z,10.93
2019-03-04T03:06:33.920Z,10.88
2019-03-04T03:09:01.879Z,10.80
2019-03-04T03:11:30.178Z,10.80
2019-03-04T03:13:58.070Z,10.74
2019-03-04T03:16:25.838Z,10.71
2019-03-04T03:18:53.685Z,10.65
2019-03-04T03:21:21.482Z,10.64
2019-03-04T03:23:49.315Z,10.71
2019-03-04T03:26:17.068Z,10.64
2019-03-04T03:28:46.170Z,10.74
2019-03-04T03:31:13.915Z,10.69
2019-03-04T03:33:42.042Z,10.72
2019-03-04T03:36:09.839Z,10.71
2019-03-04T03:38:37.736Z,10.62
2019-03-04T03:41:05.628Z,10.61
2019-03-04T03:43:33.577Z,10.63
2019-03-04T03:46:03.229Z,10.53
2019-03-04T03:48:31.150Z,10.55
2019-03-04T03:50:59.037Z,10.68
2019-03-04T03:53:26.857Z,10.67
2019-03-04T03:55:54.805Z,10.65
2019-03-04T03:58:24.968Z,10.74
2019-03-04T04:00:52.499Z,10.69
2019-03-04T04:03:20.601Z,10.63
2019-03-04T04:05:48.554Z,10.58
2019-03-04T04:08:16.418Z,10.61
2019-03-04T04:10:44.280Z,10.53
2019-03-04T04:13:12.101Z,10.67
2019-03-04T04:15:40.382Z,10.67
2019-03-04T04:18:08.296Z,10.72
2019-03-04T04:20:36.192Z,10.63
2019-03-04T04:23:04.143Z,10.56
2019-03-04T04:25:31.932Z,10.56
2019-03-04T04:27:59.751Z,10.54
2019-03-04T04:30:28.649Z,10.48
2019-03-04T04:32:56.621Z,10.42
2019-03-04T04:35:24.474Z,10.44
2019-03-04T04:37:52.307Z,10.44
2019-03-04T04:40:20.190Z,10.38
2019-03-04T04:42:48.038Z,10.33
2019-03-04T04:45:15.912Z,10.36
2019-03-04T04:47:45.391Z,10.36
2019-03-04T04:50:13.728Z,10.40
2019-03-04T04:52:41.778Z,10.33
2019-03-04T04:55:09.815Z,10.34
2019-03-04T04:57:37.605Z,10.29
2019-03-04T05:00:09.217Z,10.22
2019-03-04T05:02:37.009Z,10.24
2019-03-04T05:05:05.517Z,10.29
2019-03-04T05:07:33.280Z,10.29
2019-03-04T05:10:01.205Z,10.25
2019-03-04T05:12:29.287Z,10.29
2019-03-04T05:14:57.118Z,10.23
2019-03-04T05:17:24.981Z,10.18
2019-03-04T05:19:52.859Z,10.22
2019-03-04T05:22:20.692Z,10.24
2019-03-04T05:24:48.534Z,10.20
2019-03-04T05:27:16.410Z,10.13
2019-03-04T05:29:45.923Z,10.14
2019-03-04T05:32:13.907Z,10.05
2019-03-04T05:34:41.741Z,10.09
2019-03-04T05:37:09.721Z,10.12
2019-03-04T05:39:37.530Z,10.05
2019-03-04T05:42:05.416Z,10.01
2019-03-04T05:44:33.234Z,9.97
2019-03-04T05:47:01.028Z,10.02
2019-03-04T05:49:28.834Z,10.02
2019-03-04T05:51:56.618Z,9.96
2019-03-04T05:54:24.439Z,9.85
2019-03-04T05:56:52.712Z,9.99
2019-03-04T05:59:20.623Z,10.02
2019-03-04T06:02:00.367Z,10.06
2019-03-04T06:04:28.247Z,10.03
2019-03-04T06:07:00.818Z,10.03
2019-03-04T06:09:28.867Z,10.10
2019-03-04T06:11:56.836Z,10.01
2019-03-04T06:14:24.838Z,10.09
2019-03-04T06:16:52.713Z,10.09
2019-03-04T06:19:21.256Z,10.10
2019-03-04T06:21:50.223Z,10.12
2019-03-04T06:24:18.057Z,10.14
2019-03-04T06:26:45.933Z,10.17
2019-03-04T06:29:13.894Z,10.17
2019-03-04T06:31:41.901Z,10.26
2019-03-04T06:34:09.859Z,10.27
2019-03-04T06:36:37.877Z,10.29
2019-03-04T06:39:07.181Z,10.35
2019-03-04T06:41:35.374Z,10.35
2019-03-04T06:44:04.308Z,10.45
2019-03-04T06:46:32.146Z,10.52
2019-03-04T06:48:59.915Z,10.62
2019-03-04T06:51:33.851Z,10.65
2019-03-04T06:54:52.224Z,10.83
2019-03-04T06:57:44.640Z,11.08
2019-03-04T07:00:27.130Z,11.03
2019-03-04T07:02:55.114Z,11.02
2019-03-04T07:05:51.286Z,11.05
2019-03-04T07:09:00.772Z,11.09
2019-03-04T07:11:29.615Z,11.06
2019-03-04T07:13:57.563Z,11.13
2019-03-04T07:16:25.590Z,11.20
2019-03-04T07:18:53.475Z,11.20
2019-03-04T07:21:21.570Z,11.24
2019-03-04T07:24:02.444Z,11.32
2019-03-04T07:26:30.242Z,11.41
2019-03-04T07:28:58.113Z,11.49
2019-03-04T07:31:26.154Z,11.55
2019-03-04T07:33:54.046Z,11.66
2019-03-04T07:36:22.075Z,11.79
2019-03-04T07:38:58.269Z,11.86
2019-03-04T07:41:30.570Z,11.89
2019-03-04T07:43:58.561Z,11.87
2019-03-04T07:46:26.496Z,11.90
2019-03-04T07:48:54.435Z,11.84
2019-03-04T07:51:22.308Z,11.85
2019-03-04T07:53:50.150Z,11.86
2019-03-04T07:56:18.011Z,11.89
2019-03-04T07:58:45.982Z,11.94
2019-03-04T08:01:13.791Z,12.04
2019-03-04T08:03:41.820Z,12.16
2019-03-04T08:06:09.794Z,12.24
2019-03-04T08:08:42.995Z,12.33
2019-03-04T08:11:55.734Z,12.37
2019-03-04T08:14:23.534Z,12.48
2019-03-04T08:16:51.280Z,12.66
2019-03-04T08:19:19.197Z,12.73
2019-03-04T08:21:47.151Z,12.78
2019-03-04T08:24:15.008Z,13.03
2019-03-04T08:26:42.869Z,13.03
2019-03-04T08:29:14.091Z,13.12
2019-03-04T08:31:41.960Z,13.12
2019-03-04T08:34:09.809Z,13.23
2019-03-04T08:36:37.667Z,13.16
2019-03-04T08:39:07.932Z,13.11
2019-03-04T08:41:35.730Z,13.24
2019-03-04T08:44:04.687Z,13.21
2019-03-04T08:46:32.471Z,13.31
2019-03-04T08:49:00.850Z,13.31
2019-03-04T08:51:28.730Z,13.41
2019-03-04T08:53:56.589Z,13.46
2019-03-04T08:56:24.581Z,13.62
2019-03-04T08:58:52.915Z,13.80
2019-03-04T09:01:20.788Z,13.83
2019-03-04T09:03:48.705Z,13.89
2019-03-04T09:06:16.672Z,14.00
2019-03-04T09:08:44.502Z,14.07
2019-03-04T09:11:12.685Z,14.07
2019-03-04T09:13:42.316Z,14.18
2019-03-04T09:16:10.190Z,14.36
2019-03-04T09:18:38.191Z,14.36
2019-03-04T09:21:06.771Z,14.42
2019-03-04T09:23:34.625Z,14.58
2019-03-04T09:26:05.515Z,14.58
2019-03-04T09:28:34.081Z,14.61
2019-03-04T09:31:02.161Z,14.97
2019-03-04T09:33:29.949Z,15.03
2019-03-04T09:35:58.009Z,15.03
2019-03-04T09:38:25.879Z,15.15
2019-03-04T09:40:53.795Z,15.26
2019-03-04T09:43:21.798Z,15.40
2019-03-04T09:45:49.854Z,15.52
2019-03-04T09:48:17.619Z,15.49
2019-03-04T09:50:47.200Z,15.51
2019-03-04T09:53:15.072Z,15.50
2019-03-04T09:55:43.002Z,15.49
2019-03-04T09:58:11.211Z,15.47
2019-03-04T10:00:47.496Z,15.46
2019-03-04T10:03:47.992Z,15.41
2019-03-04T10:06:32.884Z,15.40
2019-03-04T10:09:57.876Z,15.42
2019-03-04T10:12:38.496Z,15.42
2019-03-04T10:15:25.283Z,15.41
2019-03-04T10:18:01.864Z,15.41
2019-03-04T10:20:58.111Z,15.39
2019-03-04T10:24:06.322Z,15.40
2019-03-04T10:27:21.579Z,15.44
2019-03-04T10:30:24.642Z,15.52
2019-03-04T10:33:13.388Z,15.53
2019-03-04T10:36:12.380Z,15.53
2019-03-04T10:39:22.097Z,15.65
2019-03-04T10:42:29.443Z,15.68
2019-03-04T10:45:18.222Z,15.67
2019-03-04T10:47:46.318Z,15.65
2019-03-04T10:50:14.857Z,15.78
2019-03-04T10:52:42.947Z,15.75
2019-03-04T10:55:11.245Z,15.72
2019-03-04T10:57:39.249Z,15.76
2019-03-04T11:00:16.967Z,15.78
2019-03-04T11:02:45.731Z,15.81
2019-03-04T11:05:13.892Z,15.81
2019-03-04T11:07:41.892Z,15.82
2019-03-04T11:10:10.013Z,15.82
2019-03-04T11:12:37.872Z,15.89
2019-03-04T11:15:17.398Z,15.88
2019-03-04T11:17:45.286Z,15.90
2019-03-04T11:20:13.208Z,15.90
2019-03-04T11:22:41.286Z,15.98
2019-03-04T11:25:09.405Z,16.02
2019-03-04T11:27:37.387Z,16.11
2019-03-04T11:30:05.713Z,16.05
2019-03-04T11:32:33.514Z,16.04
2019-03-04T11:35:01.325Z,16.17
2019-03-04T11:37:29.298Z,16.09
2019-03-04T11:40:02.160Z,16.04
2019-03-04T11:42:30.095Z,16.04
2019-03-04T11:44:58.020Z,16.07
2019-03-04T11:47:26.652Z,16.07
2019-03-04T11:49:54.567Z,16.05
2019-03-04T11:52:23.294Z,15.95
2019-03-04T11:54:51.343Z,15.95
2019-03-04T11:57:19.095Z,15.91
2019-03-04T11:59:46.978Z,15.94
2019-03-04T12:02:19.629Z,15.88
2019-03-04T12:04:48.347Z,15.88
2019-03-04T12:07:16.403Z,15.96
2019-03-04T12:09:44.258Z,15.83
2019-03-04T12:12:12.570Z,15.88
2019-03-04T12:14:40.405Z,15.82
2019-03-04T12:17:08.361Z,15.88
2019-03-04T12:19:37.127Z,15.85
2019-03-04T12:22:05.085Z,15.82
2019-03-04T12:24:32.983Z,15.86
2019-03-04T12:27:00.954Z,15.90
2019-03-04T12:29:28.885Z,15.78
2019-03-04T12:32:25.241Z,15.87
2019-03-04T12:34:53.083Z,15.86
2019-03-04T12:37:23.309Z,15.85
2019-03-04T12:39:51.350Z,15.85
2019-03-04T12:42:19.109Z,15.81
2019-03-04T12:44:47.056Z,15.91
2019-03-04T12:47:16.405Z,15.91
2019-03-04T12:49:44.562Z,15.96
2019-03-04T12:52:12.343Z,16.02
2019-03-04T12:54:40.322Z,15.84
2019-03-04T12:57:08.234Z,15.84
2019-03-04T12:59:36.284Z,16.05
2019-03-04T13:02:04.166Z,16.05
2019-03-04T13:04:32.144Z,16.10
2019-03-04T13:07:00.154Z,16.12
2019-03-04T13:09:28.201Z,16.15
2019-03-04T13:11:57.102Z,16.22
2019-03-04T13:14:25.883Z,16.24
2019-03-04T13:16:55.253Z,16.29
2019-03-04T13:19:23.109Z,16.29
2019-03-04T13:21:51.119Z,16.30
2019-03-04T13:24:19.072Z,16.33
2019-03-04T13:26:47.507Z,16.37
2019-03-04T13:29:15.535Z,16.41
2019-03-04T13:31:44.200Z,16.41
2019-03-04T13:34:12.182Z,16.43
2019-03-04T13:36:40.045Z,16.46
2019-03-04T13:39:10.532Z,16.45
2019-03-04T13:41:38.591Z,16.43
2019-03-04T13:44:07.385Z,16.52
2019-03-04T13:46:35.424Z,16.59
2019-03-04T13:49:03.553Z,16.59
2019-03-04T13:51:31.809Z,16.57
2019-03-04T13:54:00.408Z,16.57
2019-03-04T13:56:28.345Z,16.60
2019-03-04T13:58:56.120Z,16.60
2019-03-04T14:01:24.600Z,16.64
2019-03-04T14:03:52.650Z,16.70
2019-03-04T14:06:20.604Z,16.75
2019-03-04T14:08:48.774Z,16.75
2019-03-04T14:11:16.748Z,16.78
2019-03-04T14:13:44.632Z,16.72
2019-03-04T14:16:13.058Z,16.73
2019-03-04T14:18:40.866Z,16.70
2019-03-04T14:21:08.841Z,16.70
2019-03-04T14:23:36.729Z,16.79
2019-03-04T14:26:05.279Z,16.84
2019-03-04T14:28:33.089Z,16.96
2019-03-04T14:31:00.957Z,17.02
2019-03-04T14:33:28.959Z,17.01
2019-03-04T14:35:56.934Z,17.08
2019-03-04T14:38:24.806Z,17.12
2019-03-04T14:40:52.636Z,17.13
2019-03-04T14:43:21.455Z,17.27
2019-03-04T14:45:49.303Z,17.24
2019-03-04T14:48:18.077Z,17.31
2019-03-04T14:50:47.264Z,17.27
2019-03-04T14:53:15.241Z,17.37
2019-03-04T14:55:43.055Z,17.40
2019-03-04T14:58:10.927Z,17.49
2019-03-04T15:00:40.314Z,17.51
2019-03-04T15:03:08.302Z,17.45
2019-03-04T15:05:36.393Z,17.38
2019-03-04T15:08:04.458Z,17.33
2019-03-04T15:10:33.679Z,17.22
2019-03-04T15:13:12.438Z,17.21
2019-03-04T15:15:40.545Z,17.15
2019-03-04T15:18:08.500Z,17.13
2019-03-04T15:20:36.556Z,17.14
2019-03-04T15:23:04.524Z,17.11
2019-03-04T15:25:32.710Z,17.14
2019-03-04T15:28:12.546Z,17.07
2019-03-04T15:30:41.588Z,17.06
2019-03-04T15:33:17.415Z,17.01
2019-03-04T15:35:39.343Z,17.11
2019-03-04T15:38:07.319Z,16.97
2019-03-04T15:40:35.182Z,16.93
2019-03-04T15:43:03.354Z,16.95
2019-03-04T15:45:33.534Z,16.95
2019-03-04T15:48:01.345Z,16.94
2019-03-04T15:50:29.323Z,16.94
2019-03-04T15:52:57.393Z,16.92
2019-03-04T15:55:25.903Z,16.87
2019-03-04T15:57:53.969Z,16.85
2019-03-04T16:00:22.076Z,16.74
2019-03-04T16:02:50.095Z,16.69
2019-03-04T16:05:18.176Z,16.62
2019-03-04T16:07:46.191Z,16.53
2019-03-04T16:10:15.450Z,16.61
2019-03-04T16:12:43.788Z,16.58
2019-03-04T16:15:20.301Z,16.31
2019-03-04T16:17:48.361Z,16.45
2019-03-04T16:20:16.794Z,16.51
2019-03-04T16:22:44.876Z,16.33
2019-03-04T16:25:12.999Z,16.31
2019-03-04T16:27:41.213Z,16.28
2019-03-04T16:30:12.763Z,16.20
2019-03-04T16:32:40.945Z,16.20
2019-03-04T16:35:08.978Z,16.15
2019-03-04T16:37:37.039Z,16.13
2019-03-04T16:40:05.992Z,16.07
2019-03-04T16:42:33.973Z,15.94
2019-03-04T16:45:01.935Z,15.87
2019-03-04T16:47:29.863Z,15.94
2019-03-04T16:49:57.815Z,15.89
2019-03-04T16:52:28.768Z,15.89
2019-03-04T16:54:57.453Z,15.75
2019-03-04T16:57:25.574Z,15.75
2019-03-04T16:59:53.484Z,15.71
2019-03-04T17:02:21.513Z,15.62
2019-03-04T17:04:49.513Z,15.66
2019-03-04T17:07:17.459Z,15.63
2019-03-04T17:09:45.368Z,15.66
2019-03-04T17:12:13.673Z,15.66
2019-03-04T17:14:41.653Z,15.63
2019-03-04T17:17:11.698Z,15.49
2019-03-04T17:19:40.508Z,15.46
2019-03-04T17:22:09.144Z,15.35
2019-03-04T17:24:42.621Z,15.35
2019-03-04T17:27:10.611Z,15.31
2019-03-04T17:29:38.526Z,15.24
2019-03-04T17:32:07.864Z,15.16
2019-03-04T17:34:35.853Z,15.05
2019-03-04T17:37:05.083Z,15.13
2019-03-04T17:39:33.287Z,15.08
2019-03-04T17:42:01.109Z,15.07
2019-03-04T17:44:29.057Z,15.01
2019-03-04T17:46:56.937Z,15.05
2019-03-04T17:49:25.012Z,14.99
2019-03-04T17:51:52.999Z,14.95
2019-03-04T17:54:21.068Z,14.99
2019-03-04T17:56:51.023Z,14.92
2019-03-04T17:59:19.045Z,14.91
2019-03-04T18:01:48.060Z,14.87
2019-03-04T18:04:15.968Z,14.82
2019-03-04T18:06:44.060Z,14.86
2019-03-04T18:09:12.925Z,14.80
2019-03-04T18:11:40.739Z,14.75
2019-03-04T18:14:09.951Z,14.64
2019-03-04T18:16:37.905Z,14.59
2019-03-04T18:19:05.951Z,14.55
2019-03-04T18:21:34.775Z,14.51
2019-03-04T18:24:02.732Z,14.55
2019-03-04T18:26:35.803Z,14.41
2019-03-04T18:29:31.809Z,14.51
2019-03-04T18:32:49.415Z,14.51
2019-03-04T18:35:49.377Z,14.30
2019-03-04T18:38:50.069Z,14.28
2019-03-04T18:41:55.947Z,14.30
2019-03-04T18:44:39.542Z,14.26
2019-03-04T18:47:31.397Z,14.16
2019-03-04T18:49:59.761Z,14.17
2019-03-04T18:52:31.279Z,14.08
2019-03-04T18:54:59.220Z,14.07
2019-03-04T18:57:27.165Z,14.06
2019-03-04T18:59:55.087Z,13.96
2019-03-04T19:02:23.264Z,13.96
2019-03-04T19:04:52.956Z,14.00
2019-03-04T19:07:21.101Z,14.00
2019-03-04T19:09:49.524Z,13.87
2019-03-04T19:12:20.368Z,13.83
2019-03-04T19:14:48.274Z,13.79
2019-03-04T19:17:16.321Z,13.77
2019-03-04T19:19:44.194Z,13.78
2019-03-04T19:22:26.357Z,13.77
2019-03-04T19:24:52.549Z,13.77
2019-03-04T19:27:20.445Z,13.70
2019-03-04T19:29:48.349Z,13.64
2019-03-04T19:32:16.285Z,13.64
2019-03-04T19:34:44.117Z,13.54
2019-03-04T19:37:12.200Z,13.49
2019-03-04T19:39:40.106Z,13.59
2019-03-04T19:42:08.154Z,13.50
2019-03-04T19:44:36.032Z,13.48
2019-03-04T19:47:04.401Z,13.48
2019-03-04T19:49:32.403Z,13.48
2019-03-04T19:52:00.476Z,13.39
2019-03-04T19:54:28.540Z,13.39
2019-03-04T19:56:56.600Z,13.41
2019-03-04T19:59:24.592Z,13.44
2019-03-04T20:01:52.650Z,13.38
2019-03-04T20:04:20.639Z,13.38
2019-03-04T20:06:49.543Z,13.34
2019-03-04T20:09:17.563Z,13.34
2019-03-04T20:11:45.546Z,13.22
2019-03-04T20:14:13.462Z,13.22
2019-03-04T20:16:41.464Z,13.17
2019-03-04T20:19:09.519Z,13.11
2019-03-04T20:21:37.494Z,13.04
2019-03-04T20:24:16.706Z,13.01
2019-03-04T20:26:44.864Z,12.96
2019-03-04T20:29:12.896Z,13.03
2019-03-04T20:31:40.793Z,13.03
2019-03-04T20:34:08.735Z,13.20
2019-03-04T20:36:36.617Z,13.24
2019-03-04T20:39:09.069Z,13.31
2019-03-04T20:41:36.978Z,13.41
2019-03-04T20:44:05.645Z,13.32
2019-03-04T20:46:33.400Z,13.32
2019-03-04T20:49:01.448Z,13.14
2019-03-04T20:51:29.327Z,13.04
2019-03-04T20:53:57.875Z,13.04
2019-03-04T20:56:26.067Z,12.91
2019-03-04T20:58:53.992Z,12.91
2019-03-04T21:01:22.191Z,12.95
2019-03-04T21:03:50.208Z,12.98
2019-03-04T21:06:18.213Z,12.71
2019-03-04T21:08:46.756Z,12.59
2019-03-04T21:11:14.741Z,12.59
2019-03-04T21:13:42.770Z,12.50
2019-03-04T21:16:10.643Z,12.22
2019-03-04T21:18:38.682Z,11.81
2019-03-04T21:21:07.432Z,11.48
2019-03-04T21:23:36.770Z,11.42
2019-03-04T21:26:17.177Z,11.27
2019-03-04T21:29:32.804Z,11.10
2019-03-04T21:32:51.579Z,10.88
2019-03-04T21:35:58.466Z,11.09
2019-03-04T21:38:29.142Z,10.84
2019-03-04T21:41:56.491Z,10.69
2019-03-04T21:44:57.172Z,10.71
2019-03-04T21:47:31.663Z,10.51
2019-03-04T21:49:59.726Z,10.56
2019-03-04T21:53:01.474Z,10.22
2019-03-04T21:56:07.809Z,10.04
2019-03-04T21:58:35.683Z,9.99
2019-03-04T22:01:15.699Z,10.03
2019-03-04T22:03:43.664Z,9.92
2019-03-04T22:06:11.570Z,10.00
2019-03-04T22:08:40.835Z,9.73
2019-03-04T22:11:08.745Z,9.89
2019-03-04T22:13:36.733Z,9.89
2019-03-04T22:16:04.793Z,9.93
2019-03-04T22:18:32.855Z,9.92
2019-03-04T22:21:00.691Z,10.00
2019-03-04T22:23:29.214Z,9.81
2019-03-04T22:26:01.847Z,9.81
2019-03-04T22:28:29.799Z,9.77
2019-03-04T22:30:57.950Z,9.79
2019-03-04T22:33:25.886Z,9.93
2019-03-04T22:35:53.831Z,10.39
2019-03-04T22:38:21.839Z,10.64
2019-03-04T22:40:49.909Z,10.87
2019-03-04T22:43:17.676Z,10.93
2019-03-04T22:45:45.730Z,10.78
2019-03-04T22:48:13.606Z,10.52
2019-03-04T22:50:41.612Z,10.23
2019-03-04T22:53:09.474Z,10.19
2019-03-04T22:55:37.935Z,10.02
2019-03-04T22:58:06.055Z,9.89
2019-03-04T23:01:33.671Z,9.83
2019-03-04T23:04:20.641Z,9.62
2019-03-04T23:06:53.467Z,9.78
2019-03-04T23:09:21.529Z,9.53
2019-03-04T23:11:57.110Z,9.62
2019-03-04T23:14:27.469Z,9.60
2019-03-04T23:16:55.419Z,9.52
2019-03-04T23:19:23.268Z,9.37
2019-03-04T23:21:51.317Z,9.25
2019-03-04T23:24:19.336Z,9.38
2019-03-04T23:26:47.435Z,9.49
2019-03-04T23:29:15.228Z,9.24
2019-03-04T23:31:43.357Z,9.49
2019-03-04T23:34:11.251Z,9.76
2019-03-04T23:36:39.172Z,9.87
2019-03-04T23:39:07.885Z,9.79
2019-03-04T23:41:35.865Z,9.56
2019-03-04T23:44:04.055Z,9.49
2019-03-04T23:46:31.871Z,9.47
2019-03-04T23:48:59.661Z,9.46
2019-03-04T23:51:27.956Z,9.34
2019-03-04T23:53:55.757Z,9.24
2019-03-04T23:56:23.771Z,9.16
2019-03-04T23:58:51.693Z,9.16
